Aérodrome :
LOGIN :

S'inscrire | Disclaimer

   EN    FR    IT 

 










Légende :    VFR   VFR Marginal   IFR   IFR Intensif   IFR Très Intensif
Visi : 
Plafond : 
>= 8 km
>= 3000ft
5 à 8 km
1000 à 3000 ft
1500m à 5 km
500 à 1000 ft
800 à 1500m
200 à 500 ft
< 800m
< 200 ft
Symboles :   Orages  Brouillard  Fortes neiges  Fortes précipitations  Vent > 20 kt
SIGMETs :   Divers  Orages  Givrage  Turbulence  Onde Orograph.  Cendres Volcan.







- Altitude de l'aérodrome : 335 ft
- Code IATA : BEG


LYBE - Belgrade Nikola Tesla

DERNIER METAR :
  • 230700Z 22003KT 170V320 CAVOK 23/19 Q1023 NOSIG

METARs EXPIRÉS :
  • 230630Z 28003KT 240V300 CAVOK 21/19 Q1023 NOSIG
  • 230600Z 26004KT 230V290 CAVOK 21/19 Q1023 NOSIG
  • 230530Z 24005KT CAVOK 21/19 Q1022 NOSIG
  • 230500Z 24006KT CAVOK 20/19 Q1022 NOSIG
  • 230430Z 20003KT 150V250 CAVOK 20/19 Q1022 NOSIG

TAF TAF LYBE
Valide du 23 à 06h jusqu'au 24 à 06h UTC


230500Z 2306/2406 07006KT CAVOK TX34/2314Z TN21/2404Z
Pas de NOTAMs connus pour ce terrain.



MET'MAP, la Météo Aéronautique d'un coup d'oeil ! - Copyright ORBIFLY Décembre 2007 - Disclaimer

ORBIFLY MET'MAP TEAM :

Programmation & Développement : Alexandra Zaïnal
Conception & Développement : Baudouin d'Aumeries
Co-Programmation & Développement : Marc-Olivier Méhu
Soutien technique & logistique : Manuel Goepfert

Contact : metmap@orbifly.com




SOURCES & CREDITS :

   NOAA